createdAt,value
2023-05-08T00:00:41.968Z,14.70
2023-05-08T00:03:11.109Z,14.70
2023-05-08T00:05:38.898Z,14.70
2023-05-08T00:08:06.778Z,14.70
2023-05-08T00:10:34.559Z,14.70
2023-05-08T00:13:02.393Z,14.70
2023-05-08T00:15:30.212Z,14.70
2023-05-08T00:17:58.551Z,14.70
2023-05-08T00:20:27.844Z,14.70
2023-05-08T00:22:56.623Z,14.70
2023-05-08T00:25:24.330Z,14.70
2023-05-08T00:27:52.027Z,14.70
2023-05-08T00:30:20.166Z,14.60
2023-05-08T00:32:48.011Z,14.60
2023-05-08T00:35:15.781Z,14.60
2023-05-08T00:37:44.824Z,14.60
2023-05-08T00:40:13.153Z,14.60
2023-05-08T00:42:41.082Z,14.60
2023-05-08T00:45:10.174Z,14.60
2023-05-08T00:47:37.989Z,14.60
2023-05-08T00:50:06.755Z,14.60
2023-05-08T00:52:35.110Z,14.50
2023-05-08T00:55:06.320Z,14.50
2023-05-08T00:57:35.510Z,14.50
2023-05-08T01:00:07.470Z,14.50
2023-05-08T01:02:35.884Z,14.50
2023-05-08T01:05:04.575Z,14.50
2023-05-08T01:07:33.084Z,14.50
2023-05-08T01:10:00.802Z,14.50
2023-05-08T01:12:40.889Z,14.50
2023-05-08T01:15:16.804Z,14.50
2023-05-08T01:17:57.340Z,14.50
2023-05-08T01:20:36.687Z,14.40
2023-05-08T01:23:33.414Z,14.40
2023-05-08T01:26:27.112Z,14.40
2023-05-08T01:29:46.801Z,14.40
2023-05-08T01:32:20.111Z,14.40
2023-05-08T01:34:58.878Z,14.40
2023-05-08T01:37:33.564Z,14.40
2023-05-08T01:40:10.502Z,14.40
2023-05-08T01:42:47.614Z,14.40
2023-05-08T01:45:21.806Z,14.30
2023-05-08T01:47:57.390Z,14.30
2023-05-08T01:50:35.319Z,14.30
2023-05-08T01:53:14.491Z,14.30
2023-05-08T01:55:44.747Z,14.30
2023-05-08T01:58:13.590Z,14.30
2023-05-08T02:00:44.018Z,14.30
2023-05-08T02:03:16.523Z,14.30
2023-05-08T02:05:44.997Z,14.30
2023-05-08T02:08:14.957Z,14.30
2023-05-08T02:10:44.226Z,14.20
2023-05-08T02:13:14.126Z,14.20
2023-05-08T02:15:43.426Z,14.20
2023-05-08T02:18:12.977Z,14.20
2023-05-08T02:20:42.482Z,14.20
2023-05-08T02:23:11.204Z,14.20
2023-05-08T02:25:39.951Z,14.20
2023-05-08T02:28:08.383Z,14.20
2023-05-08T02:30:37.037Z,14.20
2023-05-08T02:33:08.208Z,14.20
2023-05-08T02:35:39.945Z,14.20
2023-05-08T02:38:10.710Z,14.20
2023-05-08T02:40:42.748Z,14.20
2023-05-08T02:43:10.577Z,14.20
2023-05-08T02:45:44.370Z,14.20
2023-05-08T02:48:15.911Z,14.20
2023-05-08T02:50:56.180Z,14.20
2023-05-08T02:53:32.619Z,14.20
2023-05-08T02:56:06.709Z,14.20
2023-05-08T02:58:41.977Z,14.10
2023-05-08T03:01:19.288Z,14.10
2023-05-08T03:03:54.097Z,14.20
2023-05-08T03:06:26.932Z,14.10
2023-05-08T03:09:01.203Z,14.10
2023-05-08T03:11:35.156Z,14.10
2023-05-08T03:14:05.403Z,14.10
2023-05-08T03:16:35.902Z,14.10
2023-05-08T03:19:09.420Z,14.10
2023-05-08T03:21:39.502Z,14.10
2023-05-08T03:24:10.063Z,14.10
2023-05-08T03:26:38.084Z,14.00
2023-05-08T03:29:07.096Z,14.00
2023-05-08T03:31:35.283Z,14.00
2023-05-08T03:34:03.904Z,14.00
2023-05-08T03:36:32.420Z,13.90
2023-05-08T03:39:02.485Z,13.90
2023-05-08T03:41:30.436Z,13.90
2023-05-08T03:43:59.576Z,13.90
2023-05-08T03:46:27.684Z,13.90
2023-05-08T03:48:55.727Z,13.90
2023-05-08T03:51:23.629Z,13.80
2023-05-08T03:53:51.356Z,13.80
2023-05-08T03:56:20.859Z,13.80
2023-05-08T03:58:54.310Z,13.70
2023-05-08T04:01:26.486Z,13.70
2023-05-08T04:04:00.870Z,13.70
2023-05-08T04:06:42.017Z,13.60
2023-05-08T04:09:18.609Z,13.70
2023-05-08T04:11:58.938Z,13.60
2023-05-08T04:14:31.418Z,13.60
2023-05-08T04:17:04.669Z,13.60
2023-05-08T04:19:39.869Z,13.60
2023-05-08T04:22:09.167Z,13.60
2023-05-08T04:24:42.954Z,13.60
2023-05-08T04:27:13.427Z,13.60
2023-05-08T04:29:41.565Z,13.60
2023-05-08T04:32:11.360Z,13.60
2023-05-08T04:34:39.353Z,13.60
2023-05-08T04:37:08.232Z,13.60
2023-05-08T04:39:35.962Z,13.60
2023-05-08T04:42:04.721Z,13.60
2023-05-08T04:44:33.814Z,13.60
2023-05-08T04:47:01.513Z,13.60
2023-05-08T04:49:29.221Z,13.50
2023-05-08T04:51:56.899Z,13.50
2023-05-08T04:54:24.643Z,13.60
2023-05-08T04:56:52.353Z,13.60
2023-05-08T04:59:20.052Z,13.50
2023-05-08T05:01:49.421Z,13.50
2023-05-08T05:04:17.178Z,13.50
2023-05-08T05:06:45.329Z,13.50
2023-05-08T05:09:13.167Z,13.50
2023-05-08T05:11:40.903Z,13.50
2023-05-08T05:14:08.669Z,13.50
2023-05-08T05:16:36.852Z,13.50
2023-05-08T05:19:05.957Z,13.50
2023-05-08T05:21:33.750Z,13.50
2023-05-08T05:24:01.590Z,13.50
2023-05-08T05:26:29.315Z,13.50
2023-05-08T05:28:57.047Z,13.50
2023-05-08T05:31:24.815Z,13.50
2023-05-08T05:33:52.609Z,13.50
2023-05-08T05:36:21.681Z,13.60
2023-05-08T05:38:49.544Z,13.60
2023-05-08T05:41:17.291Z,13.60
2023-05-08T05:43:45.050Z,13.60
2023-05-08T05:46:13.094Z,13.60
2023-05-08T05:48:40.903Z,13.60
2023-05-08T05:51:08.996Z,13.60
2023-05-08T05:53:38.047Z,13.60
2023-05-08T05:56:06.569Z,13.60
2023-05-08T05:58:34.324Z,13.60
2023-05-08T06:01:02.114Z,13.70
2023-05-08T06:03:30.084Z,13.70
2023-05-08T06:05:58.470Z,13.70
2023-05-08T06:08:26.327Z,13.70
2023-05-08T06:10:55.364Z,13.70
2023-05-08T06:13:23.270Z,13.70
2023-05-08T06:15:51.428Z,13.70
2023-05-08T06:18:19.244Z,13.70
2023-05-08T06:20:46.931Z,13.80
2023-05-08T06:23:14.681Z,13.80
2023-05-08T06:25:42.381Z,13.80
2023-05-08T06:28:11.445Z,13.80
2023-05-08T06:30:39.244Z,13.90
2023-05-08T06:33:07.085Z,13.90
2023-05-08T06:35:34.788Z,13.90
2023-05-08T06:38:02.482Z,13.90
2023-05-08T06:40:30.300Z,13.90
2023-05-08T06:42:58.017Z,14.00
2023-05-08T06:45:27.154Z,14.00
2023-05-08T06:47:54.896Z,14.10
2023-05-08T06:50:22.884Z,14.10
2023-05-08T06:52:50.640Z,14.10
2023-05-08T06:55:18.686Z,14.20
2023-05-08T06:57:46.746Z,14.20
2023-05-08T07:00:15.455Z,14.30
2023-05-08T07:02:44.516Z,14.30
2023-05-08T07:05:12.561Z,14.30
2023-05-08T07:07:42.491Z,14.40
2023-05-08T07:10:10.867Z,14.40
2023-05-08T07:12:38.845Z,14.40
2023-05-08T07:15:17.835Z,14.40
2023-05-08T07:17:54.500Z,14.40
2023-05-08T07:20:24.118Z,14.40
2023-05-08T07:22:51.848Z,14.40
2023-05-08T07:25:19.748Z,14.40
2023-05-08T07:27:47.491Z,14.40
2023-05-08T07:30:15.908Z,14.40
2023-05-08T07:32:43.629Z,14.50
2023-05-08T07:35:13.297Z,14.50
2023-05-08T07:37:41.291Z,14.50
2023-05-08T07:40:09.607Z,14.50
2023-05-08T07:42:42.055Z,14.50
2023-05-08T07:45:12.075Z,14.60
2023-05-08T07:47:40.394Z,14.60
2023-05-08T07:50:08.722Z,14.60
2023-05-08T07:52:37.823Z,14.60
2023-05-08T07:55:06.525Z,14.60
2023-05-08T07:57:37.938Z,14.60
2023-05-08T08:00:07.511Z,14.60
2023-05-08T08:02:35.451Z,14.60
2023-05-08T08:05:03.428Z,14.60
2023-05-08T08:07:32.590Z,14.60
2023-05-08T08:10:03.464Z,14.60
2023-05-08T08:12:31.894Z,14.60
2023-05-08T08:14:59.616Z,14.60
2023-05-08T08:17:28.965Z,14.60
2023-05-08T08:19:57.436Z,14.70
2023-05-08T08:22:25.471Z,14.70
2023-05-08T08:24:55.825Z,14.70
2023-05-08T08:27:25.037Z,14.70
2023-05-08T08:30:01.490Z,14.80
2023-05-08T08:32:36.343Z,14.80
2023-05-08T08:35:04.457Z,14.90
2023-05-08T08:37:32.180Z,14.90
2023-05-08T08:40:01.336Z,14.90
2023-05-08T08:42:31.514Z,15.00
2023-05-08T08:44:59.277Z,15.00
2023-05-08T08:47:29.724Z,15.00
2023-05-08T08:49:59.810Z,15.00
2023-05-08T08:52:32.938Z,15.00
2023-05-08T08:55:03.398Z,15.00
2023-05-08T08:57:35.028Z,15.10
2023-05-08T09:00:05.356Z,15.10
2023-05-08T09:02:33.171Z,15.00
2023-05-08T09:05:01.748Z,15.10
2023-05-08T09:07:30.987Z,15.10
2023-05-08T09:09:59.025Z,15.10
2023-05-08T09:12:26.782Z,15.20
2023-05-08T09:14:56.518Z,15.20
2023-05-08T09:17:24.419Z,15.30
2023-05-08T09:19:53.173Z,15.40
2023-05-08T09:22:23.621Z,15.40
2023-05-08T09:24:58.813Z,15.40
2023-05-08T09:27:27.896Z,15.50
2023-05-08T09:30:04.772Z,15.50
2023-05-08T09:32:34.711Z,15.60
2023-05-08T09:35:02.937Z,15.70
2023-05-08T09:37:30.863Z,15.80
2023-05-08T09:40:15.252Z,15.90
2023-05-08T09:42:42.961Z,16.00
2023-05-08T09:45:13.021Z,16.00
2023-05-08T09:47:49.413Z,16.10
2023-05-08T09:50:17.210Z,16.20
2023-05-08T09:52:48.384Z,16.30
2023-05-08T09:55:16.465Z,16.40
2023-05-08T09:57:54.149Z,16.40
2023-05-08T10:00:24.568Z,16.40
2023-05-08T10:02:56.996Z,16.40
2023-05-08T10:05:27.048Z,16.40
2023-05-08T10:07:54.957Z,16.40
2023-05-08T10:10:30.524Z,16.40
2023-05-08T10:12:59.503Z,16.40
2023-05-08T10:15:31.162Z,16.40
2023-05-08T10:18:05.445Z,16.40
2023-05-08T10:20:34.623Z,16.40
2023-05-08T10:23:04.237Z,16.40
2023-05-08T10:25:34.499Z,16.50
2023-05-08T10:28:11.063Z,16.50
2023-05-08T10:30:45.187Z,16.50
2023-05-08T10:33:17.965Z,16.40
2023-05-08T10:35:46.627Z,16.40
2023-05-08T10:38:17.470Z,16.50
2023-05-08T10:40:46.004Z,16.50
2023-05-08T10:43:14.223Z,16.40
2023-05-08T10:45:43.729Z,16.40
2023-05-08T10:48:21.253Z,16.40
2023-05-08T10:50:59.618Z,16.40
2023-05-08T10:53:39.788Z,16.40
2023-05-08T10:56:08.100Z,16.30
2023-05-08T10:58:39.098Z,16.30
2023-05-08T11:01:15.840Z,16.30
2023-05-08T11:03:46.572Z,16.30
2023-05-08T11:06:14.911Z,16.20
2023-05-08T11:08:51.081Z,16.20
2023-05-08T11:11:26.802Z,16.20
2023-05-08T11:13:59.617Z,16.20
2023-05-08T11:17:06.849Z,16.20
2023-05-08T11:19:34.851Z,16.20
2023-05-08T11:22:16.953Z,16.20
2023-05-08T11:24:55.235Z,16.10
2023-05-08T11:27:50.719Z,16.00
2023-05-08T11:30:37.685Z,16.00
2023-05-08T11:33:17.198Z,16.00
2023-05-08T11:35:50.474Z,16.00
2023-05-08T11:38:30.589Z,15.90
2023-05-08T11:41:04.195Z,15.90
2023-05-08T11:44:14.714Z,15.90
2023-05-08T11:46:44.707Z,15.90
2023-05-08T11:49:16.829Z,15.90
2023-05-08T11:51:47.272Z,15.80
2023-05-08T11:54:17.424Z,15.80
2023-05-08T11:56:47.955Z,15.80
2023-05-08T11:59:16.993Z,15.70
2023-05-08T12:01:53.587Z,15.70
2023-05-08T12:04:29.638Z,15.70
2023-05-08T12:06:59.780Z,15.70
2023-05-08T12:09:27.925Z,15.70
2023-05-08T12:11:58.580Z,15.70
2023-05-08T12:14:26.332Z,15.70
2023-05-08T15:39:15.754Z,19.70
2023-05-08T15:41:43.503Z,19.90
2023-05-08T15:44:11.340Z,19.90
2023-05-08T15:46:39.105Z,19.90
2023-05-08T15:49:07.015Z,19.80
2023-05-08T15:51:34.825Z,19.80
2023-05-08T15:54:02.586Z,19.70
2023-05-08T15:56:31.699Z,19.70
2023-05-08T15:58:59.533Z,19.70
2023-05-08T16:01:27.348Z,19.70
2023-05-08T16:03:55.124Z,19.70
2023-05-08T16:06:22.877Z,19.70
2023-05-08T16:08:51.885Z,19.70
2023-05-08T16:11:19.628Z,19.70
2023-05-08T16:13:48.920Z,19.70
2023-05-08T16:16:16.749Z,19.80
2023-05-08T16:18:44.541Z,19.80
2023-05-08T16:21:13.120Z,19.80
2023-05-08T16:23:40.863Z,19.90
2023-05-08T16:26:08.587Z,19.90
2023-05-08T16:28:36.343Z,19.90
2023-05-08T16:31:07.463Z,19.90
2023-05-08T16:33:35.264Z,19.90
2023-05-08T16:36:03.031Z,19.90
2023-05-08T16:38:30.792Z,19.90
2023-05-08T16:41:03.173Z,19.90
2023-05-08T16:43:30.995Z,19.90
2023-05-08T16:45:59.521Z,19.80
2023-05-08T16:48:30.214Z,19.80
2023-05-08T16:50:58.095Z,19.70
2023-05-08T16:53:27.176Z,19.70
2023-05-08T16:55:55.090Z,19.60
2023-05-08T16:58:22.932Z,19.50
2023-05-08T17:00:50.830Z,19.40
2023-05-08T17:03:18.669Z,19.30
2023-05-08T17:05:47.884Z,19.30
2023-05-08T17:08:15.622Z,19.20
2023-05-08T17:10:43.392Z,19.10
2023-05-08T17:13:11.225Z,19.00
2023-05-08T17:15:38.965Z,19.00
2023-05-08T17:18:06.888Z,18.90
2023-05-08T17:20:40.613Z,18.80
2023-05-08T17:23:11.757Z,18.80
2023-05-08T17:25:39.548Z,18.70
2023-05-08T17:28:07.361Z,18.70
2023-05-08T17:30:35.132Z,18.60
2023-05-08T17:33:03.639Z,18.60
2023-05-08T17:35:31.698Z,18.50
2023-05-08T17:37:59.478Z,18.50
2023-05-08T17:40:28.813Z,18.40
2023-05-08T17:42:56.649Z,18.40
2023-05-08T17:45:24.574Z,18.40
2023-05-08T17:47:52.407Z,18.30
2023-05-08T17:50:20.253Z,18.30
2023-05-08T17:52:48.000Z,18.20
2023-05-08T17:55:15.771Z,18.20
2023-05-08T17:57:44.864Z,18.20
2023-05-08T18:00:14.004Z,18.10
2023-05-08T18:02:41.954Z,18.10
2023-05-08T18:05:10.446Z,18.00
2023-05-08T18:07:38.207Z,18.00
2023-05-08T18:10:07.160Z,17.90
2023-05-08T18:12:34.914Z,17.80
2023-05-08T18:15:06.378Z,17.80
2023-05-08T18:17:34.340Z,17.80
2023-05-08T18:20:04.042Z,17.70
2023-05-08T18:22:32.020Z,17.70
2023-05-08T18:25:00.505Z,17.60
2023-05-08T18:27:28.322Z,17.60
2023-05-08T18:29:56.137Z,17.50
2023-05-08T18:32:25.335Z,17.50
2023-05-08T18:34:53.155Z,17.50
2023-05-08T18:37:20.998Z,17.40
2023-05-08T18:39:49.096Z,17.30
2023-05-08T18:42:17.134Z,17.30
2023-05-08T18:44:44.916Z,17.20
2023-05-08T18:47:12.687Z,17.20
2023-05-08T18:49:41.829Z,17.10
2023-05-08T18:52:09.571Z,17.10
2023-05-08T18:54:37.348Z,17.00
2023-05-08T18:57:05.377Z,17.00
2023-05-08T18:59:33.149Z,16.90
2023-05-08T19:02:01.014Z,16.90
2023-05-08T19:04:28.862Z,16.80
2023-05-08T19:06:58.055Z,16.80
2023-05-08T19:09:25.820Z,16.70
2023-05-08T19:11:53.582Z,16.70
2023-05-08T19:14:21.341Z,16.60
2023-05-08T19:16:49.080Z,16.60
2023-05-08T19:19:16.900Z,16.50
2023-05-08T19:21:45.081Z,16.50
2023-05-08T19:24:16.177Z,16.50
2023-05-08T19:26:43.922Z,16.40
2023-05-08T19:29:11.701Z,16.30
2023-05-08T19:31:39.496Z,16.40
2023-05-08T19:34:07.320Z,16.30
2023-05-08T19:36:37.666Z,16.20
2023-05-08T19:39:05.682Z,16.20
2023-05-08T19:41:34.781Z,16.20
2023-05-08T19:44:02.581Z,16.10
2023-05-08T19:46:30.376Z,16.20
2023-05-08T19:48:58.142Z,16.10
2023-05-08T19:51:26.070Z,16.00
2023-05-08T19:53:53.895Z,16.00
2023-05-08T19:56:21.700Z,16.00
2023-05-08T19:58:50.783Z,15.90
2023-05-08T20:01:18.609Z,15.90
2023-05-08T20:03:46.643Z,15.80
2023-05-08T20:06:14.496Z,15.80
2023-05-08T20:08:42.242Z,15.80
2023-05-08T20:11:11.657Z,15.70
2023-05-08T20:13:39.818Z,15.70
2023-05-08T20:16:09.474Z,15.70
2023-05-08T20:18:37.248Z,15.60
2023-05-08T20:21:05.116Z,15.60
2023-05-08T20:23:32.966Z,15.60
2023-05-08T20:26:00.736Z,15.60
2023-05-08T20:28:28.709Z,15.60
2023-05-08T20:30:56.521Z,15.50
2023-05-08T20:33:25.592Z,15.50
2023-05-08T20:35:54.036Z,15.50
2023-05-08T20:38:22.101Z,15.50
2023-05-08T20:40:49.858Z,15.40
2023-05-08T20:43:17.694Z,15.40
2023-05-08T20:45:45.486Z,15.40
2023-05-08T20:48:13.214Z,15.30
2023-05-08T20:50:42.316Z,15.30
2023-05-08T20:53:10.045Z,15.30
2023-05-08T20:55:37.759Z,15.20
2023-05-08T20:58:06.475Z,15.20
2023-05-08T21:00:34.622Z,15.20
2023-05-08T21:03:02.557Z,15.20
2023-05-08T21:05:30.967Z,15.20
2023-05-08T21:08:02.338Z,15.20
2023-05-08T21:10:31.305Z,15.20
2023-05-08T21:12:59.252Z,15.10
2023-05-08T21:18:09.191Z,15.00
2023-05-08T21:20:37.018Z,15.00
2023-05-08T21:23:04.797Z,15.00
2023-05-08T21:25:32.653Z,15.00
2023-05-08T21:28:00.480Z,15.10
2023-05-08T21:30:28.244Z,15.00
2023-05-08T21:32:56.037Z,14.90
2023-05-08T21:35:25.215Z,15.00
2023-05-08T21:37:54.616Z,15.00
2023-05-08T21:40:22.810Z,14.90
2023-05-08T21:42:50.745Z,14.90
2023-05-08T21:45:18.541Z,14.90
2023-05-08T21:47:46.351Z,14.90
2023-05-08T21:50:14.117Z,14.80
2023-05-08T21:52:43.204Z,14.80
2023-05-08T21:55:11.603Z,14.80
2023-05-08T22:01:29.741Z,14.80
2023-05-08T22:03:58.148Z,14.70
2023-05-08T22:06:26.071Z,14.70
2023-05-08T22:08:55.130Z,14.70
2023-05-08T22:11:22.877Z,14.70
2023-05-08T22:13:50.586Z,14.60
2023-05-08T22:16:18.910Z,14.60
2023-05-08T22:18:46.662Z,14.60
2023-05-08T22:21:14.487Z,14.60
2023-05-08T22:23:42.193Z,14.60
2023-05-08T22:26:11.248Z,14.60
2023-05-08T22:28:39.027Z,14.50
2023-05-08T22:31:07.375Z,14.50
2023-05-08T22:33:35.076Z,14.50
2023-05-08T22:36:02.780Z,14.40
2023-05-08T22:38:30.490Z,14.50
2023-05-08T22:41:00.016Z,14.40
2023-05-08T22:43:29.336Z,14.40
2023-05-08T22:45:58.327Z,14.40
2023-05-08T22:48:26.242Z,14.30
2023-05-08T22:50:53.988Z,14.30
2023-05-08T22:53:22.396Z,14.30
2023-05-08T22:55:50.337Z,14.30
2023-05-08T22:58:18.057Z,14.30
2023-05-08T23:00:47.283Z,14.20
2023-05-08T23:03:16.420Z,14.20
2023-05-08T23:05:44.917Z,14.20
2023-05-08T23:08:12.681Z,14.20
2023-05-08T23:10:40.395Z,14.10
2023-05-08T23:13:08.264Z,14.10
2023-05-08T23:15:36.021Z,14.10
2023-05-08T23:18:05.238Z,14.10
2023-05-08T23:20:33.040Z,14.10
2023-05-08T23:23:00.743Z,14.10
2023-05-08T23:25:28.569Z,14.00
2023-05-08T23:27:56.399Z,14.10
2023-05-08T23:30:24.090Z,14.00
2023-05-08T23:32:51.836Z,14.00
2023-05-08T23:35:21.290Z,14.00
2023-05-08T23:37:49.013Z,14.00
2023-05-08T23:40:17.292Z,14.00
2023-05-08T23:42:45.032Z,13.90
2023-05-08T23:45:13.068Z,14.00
2023-05-08T23:47:41.373Z,14.00
2023-05-08T23:50:09.561Z,14.00
2023-05-08T23:52:38.644Z,14.00
2023-05-08T23:55:07.461Z,14.00
2023-05-08T23:57:35.192Z,14.00
